Terminal Aerodrome Forecast
Issued by NWS

Home | Current Version | Previous Version | Text Only | Print | Product List | Glossary On
Versions: 1 2 3 4 5 6 7 8 9 10 11 12 13 14 15 16
000
FTUS46 KLOX 192300
TAFOXR
TAF
KOXR 192339Z 2000/2024 26008KT P6SM SKC
     FM200300 VRB03KT P6SM SCT018
     FM200700 VRB03KT P6SM OVC015
     FM201400 03005KT P6SM OVC018
     FM201800 23006KT P6SM OVC020
     FM202100 25011KT P6SM SCT025=

USA.gov is the U.S. government's official web portal to all federal, state and local government web resources and services.